createdAt,value
2022-08-05T00:15:54.871Z,5.10
2022-08-05T00:36:16.199Z,4.23
2022-08-05T00:40:54.962Z,5.27
2022-08-05T00:43:51.642Z,4.87
2022-08-05T00:46:20.894Z,4.87
2022-08-05T00:49:10.167Z,4.50
2022-08-05T00:51:51.853Z,4.47
2022-08-05T00:54:21.651Z,4.30
2022-08-05T00:56:57.140Z,4.40
2022-08-05T00:59:26.290Z,4.80
2022-08-05T01:02:03.583Z,4.40
2022-08-05T01:04:33.033Z,4.73
2022-08-05T01:07:05.101Z,4.50
2022-08-05T01:09:34.694Z,4.53
2022-08-05T01:12:18.164Z,3.93
2022-08-05T01:14:54.809Z,4.90
2022-08-05T01:17:32.680Z,4.40
2022-08-05T01:20:23.720Z,4.83
2022-08-05T01:23:15.264Z,4.77
2022-08-05T01:26:07.288Z,4.77
2022-08-05T01:28:47.092Z,4.87
2022-08-05T01:31:24.516Z,4.03
2022-08-05T01:34:02.220Z,4.40
2022-08-05T01:36:36.897Z,4.20
2022-08-05T01:39:13.243Z,4.10
2022-08-05T01:41:44.591Z,4.70
2022-08-05T01:44:16.655Z,4.47
2022-08-05T01:46:47.255Z,4.80
2022-08-05T01:49:24.953Z,4.30
2022-08-05T01:52:01.001Z,4.73
2022-08-05T01:54:46.201Z,4.50
2022-08-05T01:58:12.459Z,4.60
2022-08-05T02:00:14.976Z,4.43
2022-08-05T02:02:55.148Z,4.57
2022-08-05T02:05:34.033Z,4.50
2022-08-05T02:08:04.063Z,4.37
2022-08-05T02:10:40.848Z,4.17
2022-08-05T02:13:16.954Z,4.70
2022-08-05T02:15:55.824Z,4.63
2022-08-05T02:18:35.208Z,3.80
2022-08-05T02:21:15.528Z,5.00
2022-08-05T02:23:48.492Z,4.70
2022-08-05T02:26:27.429Z,4.40
2022-08-05T02:29:01.279Z,4.20
2022-08-05T02:31:36.535Z,4.63
2022-08-05T02:34:11.951Z,4.03
2022-08-05T02:36:46.566Z,4.60
2022-08-05T02:39:23.189Z,4.60
2022-08-05T02:42:00.651Z,4.80
2022-08-05T02:44:33.920Z,4.63
2022-08-05T02:47:07.301Z,4.20
2022-08-05T02:49:40.635Z,4.40
2022-08-05T02:52:29.608Z,4.70
2022-08-05T02:55:05.442Z,5.20
2022-08-05T02:58:10.669Z,5.30
2022-08-05T03:00:31.479Z,4.50
2022-08-05T03:03:10.326Z,4.63
2022-08-05T03:06:55.888Z,5.10
2022-08-05T03:08:31.118Z,4.70
2022-08-05T03:11:53.385Z,5.20
2022-08-05T03:13:51.683Z,4.90
2022-08-05T03:16:32.051Z,4.30
2022-08-05T03:19:06.509Z,4.30
2022-08-05T03:21:50.095Z,4.60
2022-08-05T03:24:29.688Z,4.43
2022-08-05T03:27:00.188Z,4.63
2022-08-05T03:29:44.882Z,5.20
2022-08-05T03:32:19.786Z,4.77
2022-08-05T03:34:51.628Z,5.83
2022-08-05T03:37:22.574Z,5.47
2022-08-05T03:40:01.101Z,4.90
2022-08-05T03:42:32.239Z,5.20
2022-08-05T03:45:11.796Z,5.10
2022-08-05T03:47:50.639Z,5.00
2022-08-05T03:50:21.675Z,5.63
2022-08-05T03:55:49.906Z,5.60
2022-08-05T03:56:10.299Z,5.53
2022-08-05T03:58:44.767Z,5.13
2022-08-05T04:01:16.689Z,5.90
2022-08-05T04:04:05.452Z,6.00
2022-08-05T04:06:42.794Z,4.80
2022-08-05T04:09:25.962Z,4.70
2022-08-05T04:11:57.314Z,5.17
2022-08-05T04:14:29.407Z,4.80
2022-08-05T04:17:03.269Z,4.90
2022-08-05T04:19:45.082Z,5.20
2022-08-05T04:22:21.381Z,5.20
2022-08-05T04:24:52.632Z,4.97
2022-08-05T04:27:41.801Z,4.77
2022-08-05T04:30:13.155Z,5.13
2022-08-05T04:32:42.946Z,6.03
2022-08-05T04:35:19.623Z,5.70
2022-08-05T04:38:01.312Z,5.20
2022-08-05T04:40:36.465Z,6.13
2022-08-05T04:43:06.864Z,5.63
2022-08-05T04:45:49.073Z,5.40
2022-08-05T04:48:28.382Z,5.40
2022-08-05T04:51:03.195Z,6.13
2022-08-05T04:53:41.227Z,5.60
2022-08-05T04:56:33.468Z,4.90
2022-08-05T04:59:00.630Z,5.50
2022-08-05T05:02:08.232Z,5.60
2022-08-05T05:04:47.717Z,4.90
2022-08-05T05:07:29.556Z,6.00
2022-08-05T05:10:05.486Z,5.17
2022-08-05T05:12:36.701Z,6.00
2022-08-05T05:15:10.763Z,5.77
2022-08-05T05:17:56.180Z,6.10
2022-08-05T05:20:28.451Z,6.47
2022-08-05T05:22:58.228Z,7.80
2022-08-05T05:25:32.843Z,8.50
2022-08-05T05:28:09.991Z,8.73
2022-08-05T05:30:39.890Z,7.93
2022-08-05T05:33:17.033Z,8.57
2022-08-05T05:35:48.287Z,8.00
2022-08-05T05:38:22.698Z,8.57
2022-08-05T05:40:58.432Z,11.23
2022-08-05T05:43:58.272Z,9.87
2022-08-05T05:46:18.210Z,8.97
2022-08-05T05:48:49.122Z,8.50
2022-08-05T05:51:23.631Z,10.17
2022-08-05T05:53:58.955Z,9.40
2022-08-05T05:56:34.789Z,11.00
2022-08-05T05:59:07.435Z,9.70
2022-08-05T06:01:39.794Z,9.40
2022-08-05T06:04:11.986Z,10.10
2022-08-05T06:06:43.009Z,10.07
2022-08-05T06:09:17.593Z,9.93
2022-08-05T06:11:59.986Z,10.83
2022-08-05T06:14:32.276Z,9.90
2022-08-05T06:17:22.372Z,10.03
2022-08-05T06:19:57.103Z,8.30
2022-08-05T06:22:33.582Z,10.17
2022-08-05T06:25:59.142Z,9.50
2022-08-05T06:28:12.174Z,9.70
2022-08-05T06:30:44.240Z,9.70
2022-08-05T06:33:13.102Z,11.03
2022-08-05T06:36:07.370Z,10.90
2022-08-05T06:38:39.232Z,9.63
2022-08-05T06:41:16.563Z,11.20
2022-08-05T06:43:57.999Z,10.10
2022-08-05T06:46:30.525Z,9.83
2022-08-05T06:49:01.246Z,9.80
2022-08-05T06:51:31.833Z,9.20
2022-08-05T06:54:02.632Z,9.23
2022-08-05T06:56:34.901Z,10.70
2022-08-05T06:59:08.498Z,9.40
2022-08-05T07:01:40.726Z,9.90
2022-08-05T07:04:14.003Z,9.33
2022-08-05T07:06:43.797Z,9.70
2022-08-05T07:09:12.697Z,10.77
2022-08-05T07:11:49.462Z,8.73
2022-08-05T07:14:39.375Z,9.30
2022-08-05T07:17:58.596Z,9.10
2022-08-05T07:20:32.451Z,8.83
2022-08-05T07:22:47.781Z,8.40
2022-08-05T07:25:54.472Z,8.80
2022-08-05T07:28:11.448Z,8.57
2022-08-05T07:30:43.162Z,9.00
2022-08-05T07:33:16.672Z,7.80
2022-08-05T07:36:03.641Z,8.23
2022-08-05T07:38:43.340Z,8.67
2022-08-05T07:42:13.615Z,7.87
2022-08-05T07:44:14.223Z,9.10
2022-08-05T07:46:50.434Z,9.40
2022-08-05T07:49:20.701Z,8.37
2022-08-05T07:51:53.611Z,7.97
2022-08-05T07:54:31.082Z,7.20
2022-08-05T07:57:17.982Z,7.70
2022-08-05T07:59:50.086Z,7.70
2022-08-05T08:02:30.753Z,7.43
2022-08-05T08:05:17.456Z,9.00
2022-08-05T08:07:59.838Z,8.87
2022-08-05T08:10:30.071Z,8.90
2022-08-05T08:12:59.737Z,7.93
2022-08-05T08:16:34.308Z,6.60
2022-08-05T08:18:21.874Z,7.40
2022-08-05T08:21:02.713Z,7.07
2022-08-05T08:24:02.399Z,6.80
2022-08-05T08:26:26.733Z,7.27
2022-08-05T08:29:22.285Z,5.90
2022-08-05T08:32:21.496Z,7.10
2022-08-05T08:35:07.181Z,7.27
2022-08-05T08:37:45.160Z,7.80
2022-08-05T08:40:16.785Z,7.27
2022-08-05T08:42:58.025Z,7.80
2022-08-05T08:46:15.595Z,6.90
2022-08-05T08:49:07.703Z,7.97
2022-08-05T08:52:03.940Z,8.17
2022-08-05T08:54:55.738Z,8.27
2022-08-05T08:57:42.088Z,7.90
2022-08-05T09:00:21.316Z,7.53
2022-08-05T09:02:52.478Z,7.80
2022-08-05T09:05:38.586Z,7.73
2022-08-05T09:08:30.221Z,7.53
2022-08-05T09:10:59.811Z,6.80
2022-08-05T09:13:31.470Z,7.23
2022-08-05T09:16:43.129Z,8.07
2022-08-05T09:23:09.330Z,8.03
2022-08-05T09:26:01.668Z,7.23
2022-08-05T09:28:33.400Z,8.00
2022-08-05T09:31:22.230Z,7.87
2022-08-05T09:34:01.599Z,8.07
2022-08-05T09:36:59.696Z,7.80
2022-08-05T09:39:45.233Z,7.43
2022-08-05T09:42:23.271Z,8.10
2022-08-05T09:45:17.468Z,7.20
2022-08-05T09:48:21.877Z,7.57
2022-08-05T09:51:00.005Z,6.97
2022-08-05T09:53:53.633Z,7.03
2022-08-05T09:56:27.803Z,6.90
2022-08-05T09:59:04.244Z,6.67
2022-08-05T10:01:36.467Z,7.13
2022-08-05T10:04:12.791Z,8.30
2022-08-05T10:06:49.800Z,7.60
2022-08-05T10:09:29.279Z,7.63
2022-08-05T10:12:18.609Z,7.40
2022-08-05T10:15:21.928Z,7.33
2022-08-05T10:18:16.703Z,6.90
2022-08-05T10:20:49.623Z,7.30
2022-08-05T10:23:34.321Z,7.07
2022-08-05T10:26:14.599Z,7.20
2022-08-05T10:28:46.575Z,7.20
2022-08-05T10:32:52.274Z,6.40
2022-08-05T10:34:08.566Z,7.07
2022-08-05T10:36:39.120Z,6.33
2022-08-05T10:39:24.024Z,6.63
2022-08-05T10:42:01.400Z,5.97
2022-08-05T10:44:32.902Z,7.00
2022-08-05T10:47:26.517Z,6.27
2022-08-05T10:50:32.088Z,6.77
2022-08-05T10:53:00.238Z,5.47
2022-08-05T10:55:32.938Z,6.30
2022-08-05T10:58:20.781Z,6.80
2022-08-05T11:00:55.047Z,5.97
2022-08-05T11:03:27.105Z,6.37
2022-08-05T11:06:15.266Z,6.17
2022-08-05T11:09:45.589Z,6.23
2022-08-05T11:12:50.303Z,6.03
2022-08-05T11:15:24.157Z,6.40
2022-08-05T11:18:32.660Z,6.50
2022-08-05T11:21:48.749Z,6.77
2022-08-05T11:24:30.215Z,6.70
2022-08-05T11:27:45.866Z,6.60
2022-08-05T11:30:20.834Z,6.20
2022-08-05T11:33:34.632Z,6.80
2022-08-05T11:36:34.550Z,7.03
2022-08-05T11:39:08.498Z,7.60
2022-08-05T11:42:01.601Z,6.70
2022-08-05T11:44:52.801Z,7.10
2022-08-05T11:47:48.440Z,6.93
2022-08-05T11:50:16.770Z,6.83
2022-08-05T11:52:49.583Z,6.57
2022-08-05T11:55:19.430Z,7.23
2022-08-05T11:58:08.515Z,7.03
2022-08-05T12:00:39.046Z,7.50
2022-08-05T12:03:28.570Z,6.73
2022-08-05T12:06:10.169Z,7.10
2022-08-05T12:08:50.918Z,6.83
2022-08-05T12:12:04.615Z,6.33
2022-08-05T12:15:16.639Z,7.33
2022-08-05T12:18:04.425Z,6.87
2022-08-05T12:20:38.626Z,7.20
2022-08-05T12:23:13.643Z,7.10
2022-08-05T12:26:00.428Z,7.30
2022-08-05T12:28:37.681Z,7.30
2022-08-05T12:31:07.638Z,7.63
2022-08-05T12:33:38.795Z,7.23
2022-08-05T12:36:09.760Z,7.33
2022-08-05T12:38:49.660Z,6.93
2022-08-05T12:41:19.637Z,7.50
2022-08-05T12:43:55.432Z,7.20
2022-08-05T12:46:28.831Z,7.40
2022-08-05T12:49:05.750Z,6.13
2022-08-05T12:52:12.686Z,6.47
2022-08-05T12:54:37.808Z,7.00
2022-08-05T12:57:09.732Z,7.07
2022-08-05T13:01:56.738Z,6.17
2022-08-05T13:02:39.885Z,7.07
2022-08-05T13:05:11.140Z,7.60
2022-08-05T13:07:59.208Z,6.50
2022-08-05T13:10:34.030Z,7.17
2022-08-05T13:13:08.937Z,6.87
2022-08-05T13:15:50.965Z,6.77
2022-08-05T13:18:20.632Z,5.80
2022-08-05T13:20:50.457Z,6.00
2022-08-05T13:23:22.892Z,7.07
2022-08-05T13:25:59.696Z,6.47
2022-08-05T13:28:32.142Z,6.53
2022-08-05T13:31:13.916Z,5.67
2022-08-05T13:34:21.829Z,6.23
2022-08-05T13:36:33.677Z,7.17
2022-08-05T13:39:24.110Z,6.70
2022-08-05T13:41:53.966Z,5.80
2022-08-05T13:44:24.938Z,6.97
2022-08-05T13:47:02.588Z,6.30
2022-08-05T13:49:37.966Z,6.07
2022-08-05T13:52:17.138Z,5.80
2022-08-05T13:54:53.432Z,6.50
2022-08-05T13:57:24.574Z,6.73
2022-08-05T13:59:59.408Z,6.17
2022-08-05T14:02:31.347Z,6.60
2022-08-05T14:05:29.541Z,6.60
2022-08-05T14:08:19.807Z,6.27
2022-08-05T14:10:50.976Z,6.57
2022-08-05T14:13:23.471Z,6.87
2022-08-05T14:16:07.195Z,6.70
2022-08-05T14:18:38.588Z,6.67
2022-08-05T14:22:07.735Z,5.67
2022-08-05T14:23:57.187Z,5.97
2022-08-05T14:26:38.313Z,6.10
2022-08-05T14:29:16.172Z,6.20
2022-08-05T14:32:02.558Z,6.57
2022-08-05T14:34:36.134Z,6.37
2022-08-05T14:37:06.395Z,5.93
2022-08-05T14:39:51.193Z,5.80
2022-08-05T14:42:25.146Z,5.50
2022-08-05T14:44:56.715Z,6.47
2022-08-05T14:48:05.119Z,6.40
2022-08-05T14:50:19.076Z,6.83
2022-08-05T14:52:56.800Z,5.97
2022-08-05T14:55:38.400Z,5.80
2022-08-05T14:58:11.738Z,5.90
2022-08-05T15:04:47.704Z,6.10
2022-08-05T15:08:11.225Z,5.83
2022-08-05T15:10:09.870Z,6.37
2022-08-05T15:13:00.370Z,6.13
2022-08-05T15:15:54.910Z,5.83
2022-08-05T15:18:20.103Z,5.90
2022-08-05T15:20:49.355Z,5.70
2022-08-05T15:23:19.015Z,5.77
2022-08-05T15:25:52.581Z,6.20
2022-08-05T15:28:27.567Z,5.13
2022-08-05T15:30:57.552Z,5.50
2022-08-05T15:34:04.258Z,5.37
2022-08-05T15:36:24.267Z,6.60
2022-08-05T15:40:41.020Z,6.20
2022-08-05T15:41:57.702Z,5.70
2022-08-05T15:44:30.195Z,6.03
2022-08-05T15:47:25.423Z,5.87
2022-08-05T15:54:58.521Z,5.70
2022-08-05T15:58:04.812Z,6.40
2022-08-05T16:00:50.877Z,5.47
2022-08-05T16:03:27.017Z,5.80
2022-08-05T16:05:57.470Z,6.53
2022-08-05T16:08:30.608Z,6.33
2022-08-05T16:11:00.376Z,6.03
2022-08-05T16:13:34.109Z,6.20
2022-08-05T16:16:03.927Z,6.20
2022-08-05T16:18:33.980Z,6.37
2022-08-05T16:21:05.067Z,6.07
2022-08-05T16:23:54.625Z,6.17
2022-08-05T16:32:29.519Z,6.87
2022-08-05T17:04:33.023Z,6.87
2022-08-05T17:07:03.561Z,6.00
2022-08-05T17:09:58.506Z,6.70
2022-08-05T17:12:51.012Z,7.30
2022-08-05T17:15:19.498Z,6.90
2022-08-05T17:17:55.141Z,6.77
2022-08-05T17:20:26.597Z,9.60
2022-08-05T17:22:57.641Z,7.87
2022-08-05T17:25:40.185Z,6.77
2022-08-05T17:28:10.436Z,7.67
2022-08-05T17:30:50.724Z,6.20
2022-08-05T17:33:21.684Z,7.03
2022-08-05T17:36:08.888Z,7.20
2022-08-05T17:38:39.862Z,7.87
2022-08-05T17:41:22.682Z,7.57
2022-08-05T17:43:58.729Z,7.50
2022-08-05T17:46:28.016Z,7.10
2022-08-05T17:48:58.017Z,7.73
2022-08-05T17:51:28.891Z,8.33
2022-08-05T17:54:09.873Z,8.30
2022-08-05T17:56:39.415Z,7.40
2022-08-05T17:59:08.644Z,7.60
2022-08-05T18:01:49.207Z,8.10
2022-08-05T18:04:21.464Z,7.10
2022-08-05T18:07:00.472Z,6.53
2022-08-05T18:09:59.092Z,7.50
2022-08-05T18:12:23.976Z,7.60
2022-08-05T18:14:53.378Z,7.50
2022-08-05T18:18:01.597Z,7.87
2022-08-05T18:20:14.960Z,7.37
2022-08-05T18:22:54.300Z,7.70
2022-08-05T18:25:24.043Z,8.10
2022-08-05T18:27:54.530Z,7.70
2022-08-05T18:30:23.535Z,7.93
2022-08-05T18:33:00.860Z,8.07
2022-08-05T18:36:01.054Z,7.60
2022-08-05T18:38:25.940Z,7.37
2022-08-05T18:41:56.683Z,8.13
2022-08-05T18:43:48.965Z,7.70
2022-08-05T18:46:20.053Z,6.70
2022-08-05T18:48:52.026Z,8.23
2022-08-05T18:52:05.826Z,7.90
2022-08-05T18:54:31.522Z,8.40
2022-08-05T18:57:01.614Z,6.97
2022-08-05T18:59:42.907Z,7.67
2022-08-05T19:02:27.545Z,7.17
2022-08-05T19:05:02.354Z,7.30
2022-08-05T19:07:50.194Z,6.80
2022-08-05T19:10:28.508Z,6.80
2022-08-05T19:12:58.023Z,7.40
2022-08-05T19:15:56.924Z,7.67
2022-08-05T19:18:21.900Z,6.67
2022-08-05T19:20:52.853Z,7.10
2022-08-05T19:24:05.142Z,7.17
2022-08-05T19:26:14.784Z,7.50
2022-08-05T19:28:45.436Z,7.20
2022-08-05T19:31:19.511Z,7.83
2022-08-05T19:33:56.439Z,7.80
2022-08-05T19:36:29.363Z,7.83
2022-08-05T19:39:05.350Z,8.17
2022-08-05T19:42:06.134Z,8.30
2022-08-05T19:44:24.660Z,7.50
2022-08-05T19:46:58.287Z,8.20
2022-08-05T19:49:27.497Z,9.13
2022-08-05T19:52:13.208Z,7.30
2022-08-05T19:56:15.569Z,7.60
2022-08-05T19:58:29.319Z,7.43
2022-08-05T20:01:01.946Z,7.67
2022-08-05T20:03:40.804Z,6.80
2022-08-05T20:06:28.626Z,7.37
2022-08-05T20:09:06.165Z,8.40
2022-08-05T20:11:48.079Z,7.33
2022-08-05T20:14:27.170Z,7.63
2022-08-05T20:16:59.413Z,6.90
2022-08-05T20:19:41.359Z,7.20
2022-08-05T20:22:10.775Z,7.20
2022-08-05T20:24:41.118Z,7.43
2022-08-05T20:27:11.708Z,7.43
2022-08-05T20:29:42.273Z,7.63
2022-08-05T20:32:28.179Z,7.90
2022-08-05T20:34:57.603Z,7.27
2022-08-05T20:38:06.331Z,8.57
2022-08-05T20:40:19.430Z,8.27
2022-08-05T20:42:49.613Z,7.03
2022-08-05T20:45:21.026Z,7.50
2022-08-05T20:47:50.124Z,7.83
2022-08-05T20:50:21.386Z,7.63
2022-08-05T20:52:51.561Z,8.03
2022-08-05T21:39:34.702Z,8.00
2022-08-05T21:44:01.379Z,8.20
2022-08-05T21:52:22.525Z,7.97
2022-08-05T21:59:48.151Z,8.17
2022-08-05T22:03:04.720Z,7.70
2022-08-05T22:09:45.551Z,8.33
2022-08-05T22:20:39.833Z,8.10
2022-08-05T22:28:08.640Z,8.60
2022-08-05T22:34:43.071Z,8.60
2022-08-05T22:38:15.867Z,8.73
2022-08-05T22:40:49.306Z,8.30
2022-08-05T22:43:41.511Z,8.77
2022-08-05T23:01:04.654Z,8.70
2022-08-05T23:08:26.630Z,9.60
2022-08-05T23:11:34.987Z,8.73
2022-08-05T23:14:10.945Z,9.57
2022-08-05T23:18:01.133Z,8.30
2022-08-05T23:21:48.472Z,9.63
2022-08-05T23:24:24.510Z,9.87
2022-08-05T23:27:17.466Z,10.60
2022-08-05T23:39:54.298Z,10.13
2022-08-05T23:42:31.373Z,9.10
2022-08-05T23:45:03.698Z,9.33
2022-08-05T23:47:47.681Z,8.87
2022-08-05T23:50:20.617Z,9.63
2022-08-05T23:52:51.696Z,9.37
2022-08-05T23:55:31.190Z,9.70
2022-08-05T23:58:03.421Z,9.63
